Time;durP1;ratioP1;P1;durP2;ratioP2;P2;SDS_P1;SDS_P2;PMS_P1;PMS_P2;Temp;Humidity;BMP_temperature;BMP_pressure;BME280_temperature;BME280_humidity;BME280_pressure;Samples;Min_cycle;Max_cycle;Signal;HPM_P1;HPM_P2
2022/08/18 00:00:35;;;;;;;8.90;8.00;;;;;;;18.90;92.70;93743.19;5051539;28;20205;-71
2022/08/18 00:03:19;;;;;;;10.20;7.83;;;;;;;18.87;92.28;93748.06;5044837;28;20202;-70
2022/08/18 00:06:04;;;;;;;9.57;7.63;;;;;;;18.91;91.83;93739.69;5050697;28;20321;-68
2022/08/18 00:08:48;;;;;;;8.83;7.77;;;;;;;18.91;91.28;93745.38;5050888;28;20874;-71
2022/08/18 00:11:36;;;;;;;8.97;7.97;;;;;;;18.99;90.03;93733.59;5037426;28;20264;-69
2022/08/18 00:14:20;;;;;;;8.00;7.27;;;;;;;19.06;90.24;93731.72;5045679;28;20229;-68
2022/08/18 00:17:05;;;;;;;7.70;6.90;;;;;;;18.97;89.77;93731.41;5024036;28;20301;-69
2022/08/18 00:19:49;;;;;;;8.30;7.40;;;;;;;18.94;89.67;93729.88;5051129;28;20237;-70
2022/08/18 00:22:33;;;;;;;6.97;6.33;;;;;;;18.74;90.42;93725.56;5034587;28;20294;-70
2022/08/18 00:25:18;;;;;;;7.80;6.60;;;;;;;18.78;91.30;93723.59;5047322;28;20198;-69
2022/08/18 00:28:04;;;;;;;7.87;6.70;;;;;;;18.88;91.84;93738.19;5052022;28;20202;-69
2022/08/18 00:30:48;;;;;;;7.63;6.77;;;;;;;18.96;91.11;93738.47;5050499;28;20205;-71
2022/08/18 00:33:32;;;;;;;10.73;7.10;;;;;;;18.88;91.25;93738.19;5041052;28;20203;-71
2022/08/18 00:36:16;;;;;;;7.13;6.53;;;;;;;18.95;89.87;93734.16;5050147;28;20706;-71
2022/08/18 00:39:02;;;;;;;7.40;6.73;;;;;;;19.01;90.14;93732.94;5050663;28;20206;-69
2022/08/18 00:41:46;;;;;;;7.43;6.83;;;;;;;18.91;90.14;93738.97;5049823;28;20301;-70
2022/08/18 00:44:30;;;;;;;7.27;6.67;;;;;;;18.86;92.43;93755.13;5038182;28;20198;-68
2022/08/18 00:47:15;;;;;;;7.20;6.60;;;;;;;18.75;90.88;93756.13;5050558;28;20273;-71
2022/08/18 00:49:59;;;;;;;7.63;6.27;;;;;;;18.87;89.91;93762.28;5050515;28;20281;-70
2022/08/18 00:52:57;;;;;;;7.03;6.43;;;;;;;18.84;89.63;93760.72;5038891;28;20210;-71
2022/08/18 00:55:44;;;;;;;9.97;6.40;;;;;;;18.75;89.79;93761.81;5045262;28;20252;-69
2022/08/18 00:58:34;;;;;;;7.00;6.07;;;;;;;18.83;89.37;93762.09;5042984;28;20202;-70
2022/08/18 01:01:23;;;;;;;7.37;5.80;;;;;;;18.74;89.96;93768.13;5044042;28;20765;-71
2022/08/18 01:04:17;;;;;;;6.40;5.70;;;;;;;18.71;90.41;93766.59;5045051;28;20565;-71
2022/08/18 01:07:09;;;;;;;7.13;6.43;;;;;;;18.80;88.79;93760.59;5049489;28;20198;-71
2022/08/18 01:09:54;;;;;;;6.83;6.17;;;;;;;18.70;88.60;93765.84;5051095;28;20272;-71
2022/08/18 01:12:39;;;;;;;6.87;6.17;;;;;;;18.72;87.79;93757.44;5046020;28;20211;-71
2022/08/18 01:15:25;;;;;;;6.67;5.60;;;;;;;18.61;88.90;93749.91;5041696;28;20563;-70
2022/08/18 01:27:35;;;;;;;6.90;5.60;;;;;;;18.31;91.43;93743.03;5043652;28;20202;-71
2022/08/18 01:30:24;;;;;;;6.73;6.10;;;;;;;18.44;90.44;93727.94;5053646;28;20202;-70
2022/08/18 01:33:11;;;;;;;5.83;5.23;;;;;;;18.14;90.91;93731.03;5035869;28;20797;-71
2022/08/18 01:35:56;;;;;;;6.47;5.50;;;;;;;18.38;90.31;93719.19;5053384;28;20210;-70
2022/08/18 01:38:42;;;;;;;6.60;5.37;;;;;;;18.10;91.80;93715.94;5048710;28;20227;-72
2022/08/18 01:41:26;;;;;;;6.67;5.07;;;;;;;18.12;91.09;93705.44;5028595;28;20289;-71
2022/08/18 01:44:10;;;;;;;5.90;5.10;;;;;;;18.08;91.40;93710.91;5048866;28;20198;-71
2022/08/18 01:46:55;;;;;;;6.40;5.10;;;;;;;18.16;91.05;93711.25;5049631;28;20201;-70
2022/08/18 01:49:43;;;;;;;5.47;4.97;;;;;;;18.08;91.32;93710.22;5053847;28;20206;-70
2022/08/18 01:52:28;;;;;;;5.73;5.23;;;;;;;18.12;91.25;93705.44;5045691;28;20206;-70
2022/08/18 01:55:12;;;;;;;5.37;4.97;;;;;;;17.95;92.61;93703.34;5048651;28;20194;-70
2022/08/18 01:57:56;;;;;;;5.37;4.90;;;;;;;17.92;92.40;93698.94;5055458;28;20604;-69
2022/08/18 02:00:40;;;;;;;5.27;4.87;;;;;;;17.95;92.27;93692.00;5032959;28;20207;-71
2022/08/18 02:03:31;;;;;;;5.80;5.30;;;;;;;17.92;92.16;93703.88;5050717;28;20202;-70
2022/08/18 02:06:18;;;;;;;5.70;5.20;;;;;;;17.86;92.77;93695.88;5052518;28;20730;-69
2022/08/18 02:09:02;;;;;;;5.57;4.90;;;;;;;17.98;92.00;93690.69;5034796;28;20199;-71
2022/08/18 02:11:47;;;;;;;6.00;5.50;;;;;;;17.98;91.28;93693.50;5037678;28;20206;-69
2022/08/18 02:14:31;;;;;;;6.03;5.53;;;;;;;17.96;91.73;93682.09;5043988;28;20315;-69
2022/08/18 02:17:15;;;;;;;5.70;5.10;;;;;;;17.78;93.08;93696.25;5051438;28;20231;-70
2022/08/18 02:19:59;;;;;;;6.10;5.00;;;;;;;17.94;91.09;93682.03;5037607;28;20668;-69
2022/08/18 02:22:45;;;;;;;7.40;5.10;;;;;;;18.00;90.56;93693.59;5042480;28;20203;-69
2022/08/18 02:25:29;;;;;;;6.20;5.10;;;;;;;18.02;90.24;93690.84;5053188;28;20220;-69
2022/08/18 02:28:14;;;;;;;5.70;5.20;;;;;;;17.89;90.46;93666.22;5041643;28;20271;-69
2022/08/18 02:31:14;;;;;;;6.17;4.80;;;;;;;17.89;90.30;93671.91;5052500;28;20194;-69
2022/08/18 02:33:58;;;;;;;6.70;6.03;;;;;;;17.88;89.66;93664.78;5048023;28;20205;-69
2022/08/18 02:36:43;;;;;;;6.20;5.70;;;;;;;17.83;90.12;93663.16;5051759;28;20634;-69
2022/08/18 02:39:29;;;;;;;5.60;5.10;;;;;;;17.74;90.94;93661.38;5035960;28;20584;-69
2022/08/18 02:42:13;;;;;;;6.00;5.47;;;;;;;17.65;91.36;93665.25;5042985;28;20319;-69
2022/08/18 02:44:57;;;;;;;7.53;5.77;;;;;;;17.65;91.88;93665.25;5048123;28;20660;-69
2022/08/18 02:47:42;;;;;;;5.43;4.93;;;;;;;17.62;90.89;93664.44;5051636;28;20206;-69
2022/08/18 02:50:26;;;;;;;6.40;5.80;;;;;;;17.68;91.36;93659.00;5048258;28;20283;-69
2022/08/18 02:53:12;;;;;;;6.90;5.63;;;;;;;17.69;90.58;93654.06;5042313;28;20206;-69
2022/08/18 02:56:16;;;;;;;6.97;6.23;;;;;;;17.58;91.18;93664.25;5050173;28;20587;-69
2022/08/18 02:59:04;;;;;;;7.47;6.87;;;;;;;17.42;95.27;93665.66;5018517;28;20670;-71
2022/08/18 03:01:51;;;;;;;7.60;6.43;;;;;;;17.63;94.16;93665.16;5049208;28;20207;-69
2022/08/18 03:04:35;;;;;;;6.80;6.20;;;;;;;17.75;91.74;93660.00;5032937;28;20253;-70
2022/08/18 03:07:19;;;;;;;7.30;6.57;;;;;;;17.71;93.61;93654.16;5051778;28;20198;-69
2022/08/18 03:10:04;;;;;;;6.87;6.17;;;;;;;17.76;92.31;93644.44;5052309;28;20207;-70
2022/08/18 03:12:48;;;;;;;8.67;6.43;;;;;;;17.85;91.05;93634.16;5044333;28;20211;-69
2022/08/18 03:15:32;;;;;;;7.10;6.40;;;;;;;17.83;90.53;93623.47;5030581;28;20301;-69
2022/08/18 03:18:16;;;;;;;6.93;6.23;;;;;;;17.77;90.08;93634.56;5049472;28;20206;-69
2022/08/18 03:21:12;;;;;;;8.07;6.53;;;;;;;17.74;90.43;93616.03;5051212;28;20206;-70
2022/08/18 03:23:57;;;;;;;7.20;6.50;;;;;;;17.71;90.59;93618.03;5051746;28;20203;-70
2022/08/18 03:26:43;;;;;;;7.60;6.90;;;;;;;17.72;90.90;93613.09;5042768;28;20223;-70
2022/08/18 03:29:27;;;;;;;6.50;5.90;;;;;;;17.71;90.56;93612.38;5048708;28;20206;-69
2022/08/18 03:32:11;;;;;;;6.37;5.83;;;;;;;17.68;89.60;93610.09;5044741;28;20666;-69
2022/08/18 03:34:55;;;;;;;7.17;6.20;;;;;;;17.57;90.61;93616.72;5043668;28;20281;-70
2022/08/18 03:37:40;;;;;;;6.40;5.90;;;;;;;17.63;90.30;93617.00;5053651;28;20816;-69
2022/08/18 03:40:24;;;;;;;5.90;5.40;;;;;;;17.66;89.95;93615.69;5030477;28;20198;-69
2022/08/18 03:43:08;;;;;;;7.03;6.27;;;;;;;17.60;89.37;93618.25;5058262;28;20201;-69
2022/08/18 03:45:53;;;;;;;8.03;5.87;;;;;;;17.42;89.12;93615.41;5031536;28;20195;-70
2022/08/18 03:48:39;;;;;;;6.60;6.00;;;;;;;17.36;89.42;93613.06;5050121;28;20542;-70
2022/08/18 03:51:26;;;;;;;5.97;5.47;;;;;;;17.29;89.76;93608.53;5042645;28;20206;-69
2022/08/18 03:54:12;;;;;;;6.60;6.00;;;;;;;17.13;88.97;93613.53;5049418;28;20205;-69
2022/08/18 03:56:57;;;;;;;6.77;5.27;;;;;;;16.96;88.26;93600.06;5050886;28;20934;-69
2022/08/18 03:59:42;;;;;;;6.33;5.83;;;;;;;16.93;90.05;93592.84;5050900;28;20207;-69
2022/08/18 04:02:27;;;;;;;6.50;5.87;;;;;;;16.99;89.98;93590.28;5042824;28;20209;-71
2022/08/18 04:05:12;;;;;;;6.43;5.83;;;;;;;16.74;91.33;93596.25;5049276;28;20229;-69
2022/08/18 04:07:57;;;;;;;8.53;5.47;;;;;;;16.51;92.04;93583.97;5050891;28;20683;-69
2022/08/18 04:10:43;;;;;;;7.17;6.50;;;;;;;16.27;97.07;93591.38;5056946;28;20205;-69
2022/08/18 04:13:27;;;;;;;5.83;5.33;;;;;;;16.57;96.61;93587.06;5040902;28;20297;-69
2022/08/18 04:16:12;;;;;;;6.97;6.20;;;;;;;16.89;94.63;93578.53;5044807;28;20218;-69
2022/08/18 04:19:02;;;;;;;6.47;5.87;;;;;;;16.90;93.13;93580.00;5049822;28;20202;-69
2022/08/18 04:21:51;;;;;;;6.60;5.90;;;;;;;16.91;91.38;93585.00;5045645;28;20210;-69
2022/08/18 04:24:35;;;;;;;6.13;5.43;;;;;;;16.92;91.74;93565.91;5046749;28;20677;-70
2022/08/18 04:27:21;;;;;;;7.70;7.03;;;;;;;16.93;91.46;93570.94;5050574;28;20205;-70
2022/08/18 04:30:06;;;;;;;8.70;6.93;;;;;;;17.07;92.02;93556.66;5048783;28;20272;-70
2022/08/18 04:32:51;;;;;;;8.23;7.43;;;;;;;17.03;92.32;93552.94;5046408;28;20202;-70
2022/08/18 04:35:35;;;;;;;10.30;6.67;;;;;;;17.23;90.65;93565.06;5044347;28;20237;-70
2022/08/18 04:38:20;;;;;;;6.57;5.97;;;;;;;17.10;88.78;93563.84;5035198;28;20226;-70
2022/08/18 04:41:05;;;;;;;8.40;6.07;;;;;;;17.00;89.31;93580.41;5050721;28;20202;-69
2022/08/18 04:43:51;;;;;;;6.63;5.93;;;;;;;16.78;91.08;93585.13;5047510;28;20202;-69
2022/08/18 04:46:38;;;;;;;6.20;5.60;;;;;;;16.87;91.25;93584.09;5046537;28;20202;-69
2022/08/18 04:49:26;;;;;;;6.23;5.73;;;;;;;17.14;89.66;93583.84;5038627;28;20235;-70
2022/08/18 04:55:12;;;;;;;6.30;5.70;;;;;;;16.84;90.11;93591.06;5030233;28;20198;-69
2022/08/18 04:57:58;;;;;;;9.47;5.60;;;;;;;17.18;88.91;93592.50;5049014;28;20839;-69
2022/08/18 05:00:42;;;;;;;7.20;5.90;;;;;;;17.46;86.62;93604.25;5056696;28;20206;-69
2022/08/18 05:03:27;;;;;;;8.87;5.37;;;;;;;17.21;89.70;93602.53;5041331;28;20205;-69
2022/08/18 05:06:11;;;;;;;6.30;5.53;;;;;;;17.77;89.16;93626.06;5038677;28;20355;-69
2022/08/18 05:08:59;;;;;;;6.33;5.40;;;;;;;18.28;84.31;93625.19;5046633;28;20863;-69
2022/08/18 05:11:43;;;;;;;7.33;5.37;;;;;;;18.41;83.11;93632.78;5052840;28;20286;-70
2022/08/18 05:14:27;;;;;;;7.80;4.83;;;;;;;18.77;80.66;93634.13;5049372;28;20670;-70
2022/08/18 05:17:14;;;;;;;5.30;4.67;;;;;;;18.74;81.41;93624.09;5051713;28;20226;-70
2022/08/18 05:19:59;;;;;;;5.33;4.87;;;;;;;19.26;79.19;93624.47;5029304;28;20376;-70
2022/08/18 05:22:44;;;;;;;5.83;5.30;;;;;;;19.41;78.05;93634.94;5046472;28;20214;-70
2022/08/18 05:25:28;;;;;;;6.43;4.83;;;;;;;19.24;78.69;93642.19;5051224;28;20280;-69
2022/08/18 05:28:13;;;;;;;12.90;6.23;;;;;;;19.84;76.71;93642.06;5053264;28;20202;-70
2022/08/18 05:30:57;;;;;;;5.80;4.93;;;;;;;19.71;77.03;93644.50;5037217;28;20198;-70
2022/08/18 05:33:42;;;;;;;4.97;4.57;;;;;;;19.69;76.90;93640.88;5048971;28;20289;-70
2022/08/18 05:36:48;;;;;;;8.23;5.40;;;;;;;19.38;78.69;93639.81;5042030;28;20257;-70
2022/08/18 05:39:57;;;;;;;5.23;4.83;;;;;;;19.56;78.45;93645.44;5052667;28;20198;-70
2022/08/18 05:42:42;;;;;;;8.37;5.47;;;;;;;19.44;78.75;93645.00;5052447;28;20936;-69
2022/08/18 05:45:26;;;;;;;9.23;5.27;;;;;;;20.11;76.34;93642.25;5049392;28;20670;-70
2022/08/18 05:48:10;;;;;;;6.23;5.00;;;;;;;20.40;73.63;93638.16;5052123;28;20202;-70
2022/08/18 05:50:55;;;;;;;5.73;4.50;;;;;;;20.05;74.81;93649.88;5060212;28;20737;-70
2022/08/18 05:56:45;;;;;;;7.63;5.23;;;;;;;20.11;77.27;93667.13;5048257;28;20233;-72
2022/08/18 05:59:38;;;;;;;6.73;5.23;;;;;;;19.74;80.38;93665.22;5054140;28;20209;-70
2022/08/18 06:02:29;;;;;;;5.60;5.03;;;;;;;20.12;78.94;93677.13;5042766;28;20301;-69
2022/08/18 06:05:21;;;;;;;8.20;5.17;;;;;;;20.01;79.36;93675.31;5030582;28;20223;-72
2022/08/18 06:08:12;;;;;;;6.80;6.20;;;;;;;19.92;81.56;93667.94;5055130;28;20242;-70
2022/08/18 06:10:56;;;;;;;7.50;6.70;;;;;;;19.70;82.79;93676.44;5052584;28;20667;-70
2022/08/18 06:13:42;;;;;;;7.20;6.23;;;;;;;19.87;83.28;93663.50;5047643;28;20266;-70
2022/08/18 06:16:54;;;;;;;6.70;6.13;;;;;;;19.68;84.15;93674.28;5030076;28;20787;-70
2022/08/18 06:20:00;;;;;;;8.70;6.43;;;;;;;19.79;83.27;93676.06;5049431;28;20217;-70
2022/08/18 06:23:13;;;;;;;9.23;6.60;;;;;;;19.97;82.33;93675.91;5039968;28;20580;-70
2022/08/18 06:26:04;;;;;;;7.10;6.40;;;;;;;20.19;80.92;93670.19;5031449;28;20233;-69
2022/08/18 06:29:08;;;;;;;7.17;6.47;;;;;;;20.39;80.83;93685.09;5050842;28;20217;-70
2022/08/18 06:32:04;;;;;;;8.23;6.20;;;;;;;20.01;81.61;93686.69;5047750;28;20206;-70
2022/08/18 06:35:17;;;;;;;10.38;5.82;;;;;;;19.66;84.53;93682.72;5053200;28;20206;-72
2022/08/18 06:41:41;;;;;;;7.33;6.63;;;;;;;19.75;83.74;93680.88;5052565;28;20203;-69
2022/08/18 06:44:35;;;;;;;6.13;5.60;;;;;;;20.45;79.79;93684.56;5029879;28;20289;-70
2022/08/18 06:47:45;;;;;;;6.33;5.73;;;;;;;20.47;78.97;93673.97;5040272;28;20544;-69
2022/08/18 06:50:35;;;;;;;6.72;6.03;;;;;;;20.72;77.58;93669.00;5049162;28;20202;-69
2022/08/18 06:53:20;;;;;;;6.63;6.05;;;;;;;20.76;76.97;93671.94;5041712;28;20207;-71
2022/08/18 06:56:24;;;;;;;6.57;6.03;;;;;;;20.59;78.28;93680.03;5056542;28;20214;-69
2022/08/18 06:59:30;;;;;;;9.20;6.30;;;;;;;20.29;81.79;93673.38;5035400;28;20203;-70
2022/08/18 07:02:25;;;;;;;6.40;5.80;;;;;;;20.57;79.30;93668.56;5043272;28;20199;-70
2022/08/18 07:05:30;;;;;;;5.93;4.93;;;;;;;20.98;73.70;93661.22;5034363;28;20257;-69
2022/08/18 07:08:40;;;;;;;5.90;5.40;;;;;;;20.96;75.07;93659.03;5052464;28;20194;-72
2022/08/18 07:11:32;;;;;;;5.30;4.85;;;;;;;21.57;71.03;93659.97;5051482;28;20205;-71
2022/08/18 07:14:20;;;;;;;5.90;4.72;;;;;;;22.01;68.82;93658.28;5044397;28;20230;-70
2022/08/18 07:17:24;;;;;;;6.25;4.97;;;;;;;22.26;68.31;93642.47;5025191;28;20229;-72
2022/08/18 07:20:19;;;;;;;5.68;5.18;;;;;;;22.15;68.47;93640.78;5039211;28;20272;-70
2022/08/18 07:23:04;;;;;;;5.32;4.82;;;;;;;22.56;64.55;93619.56;5047616;28;20209;-73
2022/08/18 07:25:58;;;;;;;4.90;4.43;;;;;;;22.60;63.26;93623.22;5039922;28;20226;-70
2022/08/18 07:28:49;;;;;;;5.40;4.03;;;;;;;23.13;62.03;93627.19;5052394;28;20234;-73
2022/08/18 07:31:53;;;;;;;3.97;3.60;;;;;;;21.68;64.76;93636.75;5039020;28;20198;-70
2022/08/18 07:34:45;;;;;;;5.13;4.18;;;;;;;22.37;65.58;93629.13;5035501;28;20233;-74
2022/08/18 07:37:41;;;;;;;11.13;4.10;;;;;;;22.92;62.72;93636.78;5051482;28;20230;-72
2022/08/18 07:40:36;;;;;;;7.05;4.07;;;;;;;22.35;64.09;93646.19;5051679;28;20544;-72
2022/08/18 07:44:05;;;;;;;4.75;3.95;;;;;;;22.48;63.47;93642.22;5050076;28;20210;-71
2022/08/18 07:46:58;;;;;;;5.35;3.88;;;;;;;22.59;62.53;93655.31;5046463;28;20201;-69
2022/08/18 07:49:43;;;;;;;10.18;4.03;;;;;;;22.25;63.92;93660.25;5041590;28;20205;-71
2022/08/18 07:52:30;;;;;;;6.82;3.80;;;;;;;23.28;61.48;93651.06;5050021;28;20230;-71
2022/08/18 07:55:27;;;;;;;4.25;3.85;;;;;;;23.93;59.39;93658.72;5035509;28;20202;-72
2022/08/18 07:58:36;;;;;;;4.22;3.58;;;;;;;23.73;58.88;93667.69;5036200;28;20212;-73
2022/08/18 08:01:35;;;;;;;4.03;3.63;;;;;;;23.68;60.35;93671.88;5035077;28;20675;-73
2022/08/18 08:04:41;;;;;;;4.80;3.15;;;;;;;23.13;61.92;93683.66;5041529;28;20557;-74
2022/08/18 08:07:30;;;;;;;4.47;4.07;;;;;;;22.84;63.16;93676.59;5040533;28;20202;-72
2022/08/18 08:10:30;;;;;;;4.63;4.22;;;;;;;22.61;64.18;93669.66;5051429;28;20198;-70
2022/08/18 08:13:27;;;;;;;6.13;3.97;;;;;;;22.89;64.10;93661.72;5048306;28;20202;-73
2022/08/18 08:16:34;;;;;;;4.60;4.20;;;;;;;23.88;60.93;93660.06;5037744;28;20215;-73
2022/08/18 08:19:41;;;;;;;4.43;4.05;;;;;;;22.82;63.75;93651.59;5050864;28;20233;-74
2022/08/18 08:22:35;;;;;;;6.15;4.45;;;;;;;21.90;66.72;93656.56;5047648;28;20198;-73
2022/08/18 08:25:36;;;;;;;5.50;4.82;;;;;;;23.22;63.18;93645.22;5041569;28;20222;-73
2022/08/18 08:28:21;;;;;;;4.50;4.18;;;;;;;23.29;62.99;93655.38;5039686;28;20286;-73
2022/08/18 08:31:11;;;;;;;4.50;4.10;;;;;;;24.12;60.47;93654.75;5043447;28;20678;-73
2022/08/18 08:34:05;;;;;;;5.15;4.55;;;;;;;23.90;60.49;93654.38;5046288;28;20222;-72
2022/08/18 08:36:56;;;;;;;5.63;4.13;;;;;;;23.51;61.14;93655.84;5021273;28;20226;-75
2022/08/18 08:39:54;;;;;;;5.95;4.30;;;;;;;23.76;60.16;93654.13;5041596;28;20202;-73
2022/08/18 08:42:48;;;;;;;4.70;4.30;;;;;;;23.14;62.27;93667.94;5049111;28;20190;-73
2022/08/18 08:46:07;;;;;;;5.47;4.45;;;;;;;22.94;63.14;93665.41;5046343;28;20239;-74
2022/08/18 08:49:29;;;;;;;7.53;4.68;;;;;;;23.38;60.69;93665.56;5050262;28;20198;-71
2022/08/18 08:52:37;;;;;;;6.55;5.00;;;;;;;23.21;62.04;93649.50;5049981;28;20667;-74
2022/08/18 08:55:25;;;;;;;5.78;5.20;;;;;;;24.30;58.78;93634.31;5054348;28;20901;-71
2022/08/18 08:58:21;;;;;;;6.53;5.75;;;;;;;22.68;63.58;93639.09;5050592;28;20205;-72
2022/08/18 09:01:11;;;;;;;6.22;5.72;;;;;;;22.91;64.11;93636.03;5048026;28;20206;-69
2022/08/18 09:04:07;;;;;;;5.78;5.28;;;;;;;23.51;62.18;93618.66;5030324;28;20202;-72
2022/08/18 09:07:21;;;;;;;45.67;8.27;;;;;;;22.70;64.12;93628.44;5050618;28;20195;-72
2022/08/18 09:10:31;;;;;;;24.40;7.18;;;;;;;22.99;63.37;93639.06;5050469;28;20203;-73
2022/08/18 09:13:27;;;;;;;7.18;6.45;;;;;;;23.26;63.41;93628.91;5044173;28;20220;-68
2022/08/18 09:16:18;;;;;;;9.68;6.53;;;;;;;24.22;60.41;93634.16;5034204;28;20215;-75
2022/08/18 09:19:40;;;;;;;12.73;6.20;;;;;;;24.55;58.87;93627.50;5028663;28;20205;-75
2022/08/18 09:22:50;;;;;;;7.30;6.47;;;;;;;23.87;59.64;93614.97;5042193;28;20194;-70
2022/08/18 09:25:38;;;;;;;6.78;6.18;;;;;;;23.68;61.40;93608.22;5035178;28;20206;-72
2022/08/18 09:28:56;;;;;;;10.32;7.45;;;;;;;23.95;61.09;93623.66;5032086;28;20225;-71
2022/08/18 09:31:44;;;;;;;7.60;6.85;;;;;;;24.45;58.74;93626.63;5031245;28;20206;-75
2022/08/18 09:34:50;;;;;;;8.35;7.00;;;;;;;23.86;60.45;93622.09;5049196;28;20346;-75
2022/08/18 09:44:34;;;;;;;7.80;7.00;;;;;;;23.66;60.21;93620.34;5047443;28;20195;-73
2022/08/18 09:47:20;;;;;;;6.45;5.80;;;;;;;24.45;58.03;93633.06;5054827;28;20225;-73
2022/08/18 09:50:05;;;;;;;6.72;6.13;;;;;;;23.83;59.58;93629.19;5053874;28;20202;-71
2022/08/18 09:52:49;;;;;;;6.93;6.32;;;;;;;24.79;56.53;93617.81;5036094;28;20203;-71
2022/08/18 09:55:48;;;;;;;6.50;5.65;;;;;;;24.96;56.25;93613.75;5058138;28;20203;-73
2022/08/18 09:58:33;;;;;;;10.43;6.50;;;;;;;23.90;58.73;93622.16;5052217;28;20214;-75
2022/08/18 10:01:17;;;;;;;6.32;5.63;;;;;;;25.20;55.11;93636.97;5051655;28;20194;-74
2022/08/18 10:04:13;;;;;;;6.13;5.53;;;;;;;24.63;57.25;93631.91;5035394;28;20203;-77
2022/08/18 10:07:29;;;;;;;8.95;6.30;;;;;;;23.99;57.55;93646.66;5053452;28;20202;-74
2022/08/18 10:10:19;;;;;;;10.60;6.32;;;;;;;24.58;57.76;93645.44;5052709;28;20198;-73
2022/08/18 10:13:28;;;;;;;6.30;5.32;;;;;;;24.83;56.23;93637.91;5042566;28;20540;-73
2022/08/18 10:16:24;;;;;;;7.60;5.38;;;;;;;25.80;53.69;93647.66;5040042;28;20913;-74
2022/08/18 10:20:02;;;;;;;8.70;5.15;;;;;;;25.91;52.00;93632.00;5051509;28;20782;-74
2022/08/18 10:22:48;;;;;;;5.55;4.97;;;;;;;25.77;52.67;93643.34;4988131;28;20208;-75
2022/08/18 10:25:37;;;;;;;5.65;5.15;;;;;;;25.45;52.70;93637.97;4991283;28;20231;-73
2022/08/18 10:28:55;;;;;;;6.07;4.78;;;;;;;25.98;53.13;93636.38;5040767;28;20230;-74
2022/08/18 10:31:54;;;;;;;5.18;4.55;;;;;;;25.47;54.59;93634.41;5033426;28;20234;-72
2022/08/18 10:34:47;;;;;;;7.22;5.05;;;;;;;25.78;51.71;93628.31;5052495;28;20222;-73
2022/08/18 10:37:37;;;;;;;5.93;5.30;;;;;;;25.94;51.79;93627.72;5052542;28;20655;-74
2022/08/18 10:40:22;;;;;;;7.90;5.10;;;;;;;26.70;50.19;93608.91;5031642;28;20203;-72
2022/08/18 10:43:10;;;;;;;6.13;4.82;;;;;;;26.26;50.58;93600.72;5045086;28;20273;-73
2022/08/18 10:45:56;;;;;;;5.30;4.80;;;;;;;26.18;51.66;93596.31;5047929;28;20201;-76
2022/08/18 10:48:40;;;;;;;5.85;4.88;;;;;;;26.19;51.50;93600.66;5032360;28;20210;-74
2022/08/18 10:51:36;;;;;;;5.82;4.75;;;;;;;25.47;53.51;93599.97;5036974;28;20276;-74
2022/08/18 10:54:27;;;;;;;7.30;4.65;;;;;;;26.34;51.19;93597.91;5049913;28;20202;-71
2022/08/18 10:57:24;;;;;;;4.72;4.28;;;;;;;26.82;49.95;93595.31;5053838;28;20313;-72
2022/08/18 11:00:12;;;;;;;5.55;4.50;;;;;;;26.64;51.28;93600.97;5037107;28;20202;-72
2022/08/18 11:03:16;;;;;;;5.10;4.63;;;;;;;26.83;49.24;93593.91;5041628;28;20289;-70
2022/08/18 11:06:05;;;;;;;9.45;4.95;;;;;;;26.02;51.29;93581.13;5028361;28;20225;-72
2022/08/18 11:08:51;;;;;;;6.20;4.45;;;;;;;25.76;52.77;93576.59;5041585;28;20202;-72
2022/08/18 11:11:44;;;;;;;6.25;5.07;;;;;;;26.35;51.12;93553.41;5042666;28;20698;-71
2022/08/18 11:14:46;;;;;;;5.43;4.95;;;;;;;25.90;52.22;93540.84;5052993;28;20230;-73
2022/08/18 11:17:59;;;;;;;5.10;4.25;;;;;;;25.51;53.80;93534.03;5043602;28;20702;-71
2022/08/18 11:20:43;;;;;;;6.30;4.72;;;;;;;26.28;51.35;93532.53;5043985;28;20198;-72
2022/08/18 11:23:27;;;;;;;5.63;4.47;;;;;;;26.49;51.90;93516.09;5022888;28;20230;-72
2022/08/18 11:26:15;;;;;;;5.32;3.75;;;;;;;27.17;48.54;93512.06;5048884;28;20535;-70
2022/08/18 11:29:13;;;;;;;4.85;3.97;;;;;;;27.31;48.43;93507.06;5048595;28;20581;-71
2022/08/18 11:32:00;;;;;;;5.28;4.30;;;;;;;26.97;49.16;93516.31;5041321;28;20632;-71
2022/08/18 11:34:51;;;;;;;3.97;3.53;;;;;;;27.93;46.31;93519.38;5051229;28;20554;-72
2022/08/18 11:37:38;;;;;;;7.20;4.43;;;;;;;27.33;47.33;93515.00;5050961;28;20356;-72
2022/08/18 11:40:34;;;;;;;5.00;4.50;;;;;;;26.50;49.48;93500.31;5044730;28;20620;-74
2022/08/18 11:43:22;;;;;;;7.43;4.25;;;;;;;26.96;48.48;93474.66;5045697;28;20210;-70
2022/08/18 11:46:26;;;;;;;8.05;4.13;;;;;;;27.16;50.58;93467.47;5041388;28;20663;-73
2022/08/18 11:49:24;;;;;;;7.78;4.60;;;;;;;26.69;48.95;93458.00;5051400;28;20224;-72
2022/08/18 11:52:25;;;;;;;4.65;4.25;;;;;;;26.85;49.49;93440.78;5050740;28;20252;-71
2022/08/18 11:55:26;;;;;;;8.10;4.50;;;;;;;27.34;48.48;93430.13;5056695;28;20272;-72
2022/08/18 11:58:38;;;;;;;4.45;4.03;;;;;;;26.82;48.30;93419.94;5051245;28;20634;-72
2022/08/18 12:01:34;;;;;;;4.20;3.83;;;;;;;27.23;48.18;93420.03;5050428;28;20202;-72
2022/08/18 12:04:19;;;;;;;5.28;4.20;;;;;;;27.09;48.29;93420.03;5040824;28;20305;-74
2022/08/18 12:07:09;;;;;;;6.47;4.40;;;;;;;27.09;46.67;93443.03;5035971;28;20201;-71
2022/08/18 12:10:17;;;;;;;4.88;4.28;;;;;;;26.42;50.56;93455.00;5050949;28;20198;-74
2022/08/18 12:13:01;;;;;;;4.88;3.97;;;;;;;26.84;49.20;93471.72;5039066;28;20210;-72
2022/08/18 12:15:46;;;;;;;6.97;4.30;;;;;;;26.49;49.63;93475.88;5040759;28;20199;-71
2022/08/18 12:18:30;;;;;;;6.63;4.88;;;;;;;26.65;49.34;93470.22;5050639;28;20682;-72
2022/08/18 12:21:14;;;;;;;5.28;4.47;;;;;;;26.42;49.93;93455.00;5050601;28;20198;-72
2022/08/18 12:24:00;;;;;;;8.57;4.05;;;;;;;26.86;48.93;93447.97;5017062;28;20230;-72
2022/08/18 12:26:43;;;;;;;5.35;4.50;;;;;;;27.02;47.66;93453.09;5045691;28;20678;-70
2022/08/18 12:29:28;;;;;;;5.47;4.38;;;;;;;26.05;51.33;93448.34;5032558;28;20206;-71
2022/08/18 12:32:13;;;;;;;4.93;4.05;;;;;;;27.28;48.23;93458.88;5049629;28;20198;-74
2022/08/18 12:34:58;;;;;;;6.95;4.30;;;;;;;27.51;46.80;93448.84;5039591;28;20693;-73
2022/08/18 12:37:44;;;;;;;6.50;4.75;;;;;;;28.00;46.55;93468.97;5035152;28;20702;-73
2022/08/18 12:40:28;;;;;;;6.07;4.75;;;;;;;26.78;48.56;93470.97;5050787;28;20233;-72
2022/08/18 12:43:12;;;;;;;8.25;4.60;;;;;;;27.11;47.03;93472.50;5047326;28;21002;-72
2022/08/18 12:45:58;;;;;;;6.13;4.55;;;;;;;27.26;48.66;93470.38;5045900;28;20269;-73
2022/08/18 12:48:42;;;;;;;8.65;4.50;;;;;;;27.87;47.94;93468.25;5050249;28;20689;-75
2022/08/18 12:51:26;;;;;;;5.28;4.53;;;;;;;27.19;49.53;93463.19;5035107;28;20190;-72
2022/08/18 12:54:10;;;;;;;6.78;4.63;;;;;;;26.62;48.94;93463.00;5031759;28;20190;-73
2022/08/18 12:56:56;;;;;;;5.43;3.92;;;;;;;27.70;46.98;93464.69;5050058;28;20301;-72
2022/08/18 12:59:40;;;;;;;8.05;4.40;;;;;;;27.51;48.08;93474.75;5045663;28;20202;-73
2022/08/18 13:02:24;;;;;;;5.63;4.40;;;;;;;27.27;48.44;93474.69;5033243;28;20221;-73
2022/08/18 13:05:09;;;;;;;6.10;4.13;;;;;;;26.97;49.31;93461.69;5047740;28;20214;-73
2022/08/18 13:07:57;;;;;;;7.10;4.68;;;;;;;26.41;50.84;93464.38;5049949;28;20202;-73
2022/08/18 13:10:41;;;;;;;7.40;4.28;;;;;;;25.90;52.63;93449.69;5040506;28;20198;-72
2022/08/18 13:13:25;;;;;;;9.18;5.28;;;;;;;26.57;49.28;93441.44;5049523;28;20216;-73
2022/08/18 13:16:11;;;;;;;5.82;4.57;;;;;;;26.55;48.60;93427.03;5048212;28;20225;-73
2022/08/18 13:18:55;;;;;;;6.18;4.47;;;;;;;26.79;48.90;93424.25;5050120;28;20706;-73
2022/08/18 13:21:41;;;;;;;4.90;4.43;;;;;;;26.95;48.85;93412.81;5049668;28;20225;-73
2022/08/18 13:24:25;;;;;;;6.05;4.80;;;;;;;26.64;48.54;93411.28;5049607;28;20226;-73
2022/08/18 13:27:10;;;;;;;7.45;4.57;;;;;;;26.08;50.46;93415.34;5039240;28;20229;-73
2022/08/18 13:29:54;;;;;;;6.95;4.60;;;;;;;26.62;49.43;93414.13;5047955;28;20206;-72
2022/08/18 13:32:39;;;;;;;41.65;6.45;;;;;;;26.60;49.79;93405.53;5052705;28;20190;-74
2022/08/18 13:35:23;;;;;;;14.80;4.63;;;;;;;26.71;49.19;93407.00;5053990;28;20238;-73
2022/08/18 13:38:08;;;;;;;6.45;4.45;;;;;;;26.74;49.11;93396.91;5041638;28;20214;-73
2022/08/18 13:40:54;;;;;;;8.90;4.03;;;;;;;26.81;49.53;93384.00;5054137;28;20198;-71
2022/08/18 13:43:41;;;;;;;12.40;5.05;;;;;;;26.00;52.54;93377.97;5053952;28;20249;-72
2022/08/18 13:46:26;;;;;;;11.95;4.93;;;;;;;26.44;50.52;93371.69;5037601;28;20203;-74
2022/08/18 13:49:12;;;;;;;12.55;4.90;;;;;;;26.36;51.42;93360.19;5047159;28;20285;-73